Time;durP1;ratioP1;P1;durP2;ratioP2;P2;SDS_P1;SDS_P2;PMS_P1;PMS_P2;Temp;Humidity;BMP_temperature;BMP_pressure;BME280_temperature;BME280_humidity;BME280_pressure;Samples;Min_cycle;Max_cycle;Signal;HPM_P1;HPM_P2
2022/10/07 00:01:39;;;;;;;23.53;10.30;;;;;;;5.36;93.88;100385.99;2273446;78;20938;-82
2022/10/07 00:04:44;;;;;;;34.77;11.87;;;;;;;5.31;93.67;100387.42;2272913;78;20979;-82
2022/10/07 00:07:40;;;;;;;20.03;10.77;;;;;;;5.28;93.86;100391.14;2273158;78;20924;-83
2022/10/07 00:10:40;;;;;;;26.53;10.93;;;;;;;5.22;93.53;100392.08;2273271;78;20916;-83
2022/10/07 00:13:41;;;;;;;25.83;10.33;;;;;;;5.18;93.58;100390.97;2273580;78;20904;-82
2022/10/07 00:16:41;;;;;;;22.47;10.00;;;;;;;5.15;93.31;100396.37;2273262;78;20926;-82
2022/10/07 00:19:42;;;;;;;16.77;10.10;;;;;;;5.08;93.26;100395.13;2273086;78;20963;-82
2022/10/07 00:22:42;;;;;;;20.83;10.30;;;;;;;5.03;93.41;100392.67;2273443;78;20926;-82
2022/10/07 00:25:42;;;;;;;22.73;9.50;;;;;;;5.01;93.45;100392.59;2273470;78;21377;-84
2022/10/07 00:28:43;;;;;;;17.43;10.13;;;;;;;4.98;93.37;100391.12;2273258;78;20943;-83
2022/10/07 00:31:43;;;;;;;19.43;9.83;;;;;;;4.93;92.97;100399.02;2272981;78;20919;-82
2022/10/07 00:34:44;;;;;;;20.13;9.70;;;;;;;4.88;93.02;100398.25;2269049;78;20990;-82
2022/10/07 00:37:44;;;;;;;19.57;10.37;;;;;;;4.84;93.15;100394.59;2268935;78;20869;-82
2022/10/07 00:40:45;;;;;;;19.60;10.70;;;;;;;4.81;93.16;100387.94;2269377;78;20943;-82
2022/10/07 00:43:45;;;;;;;23.30;10.50;;;;;;;4.76;93.03;100385.09;2269129;78;20920;-81
2022/10/07 00:46:45;;;;;;;22.10;10.70;;;;;;;4.73;93.13;100389.19;2269258;78;21283;-83
2022/10/07 00:49:46;;;;;;;19.20;9.70;;;;;;;4.66;92.72;100384.05;2269408;78;20912;-83
2022/10/07 00:52:46;;;;;;;32.37;10.03;;;;;;;4.64;92.91;100380.88;2269479;78;20896;-83
2022/10/07 00:55:47;;;;;;;23.70;9.97;;;;;;;4.63;92.99;100379.09;2269339;78;21350;-82
2022/10/07 00:58:47;;;;;;;19.23;9.83;;;;;;;4.55;93.03;100376.05;2269213;78;20943;-82
2022/10/07 01:01:47;;;;;;;21.57;9.63;;;;;;;4.55;93.03;100376.05;2269465;78;20948;-84
2022/10/07 01:04:48;;;;;;;21.47;9.13;;;;;;;4.56;92.91;100379.53;2269383;78;20952;-82
2022/10/07 01:07:48;;;;;;;88.87;15.30;;;;;;;4.50;92.63;100381.75;2269464;78;20920;-83
2022/10/07 01:10:49;;;;;;;22.63;9.50;;;;;;;4.46;92.71;100375.50;2269310;78;21256;-83
2022/10/07 01:13:49;;;;;;;27.33;9.80;;;;;;;4.39;92.55;100370.36;2269373;78;20951;-83
2022/10/07 01:16:49;;;;;;;17.13;9.20;;;;;;;4.34;92.58;100378.23;2269241;78;20920;-83
2022/10/07 01:19:50;;;;;;;21.67;9.90;;;;;;;4.29;92.72;100369.28;2268971;78;20936;-79
2022/10/07 01:22:50;;;;;;;23.30;9.80;;;;;;;4.29;92.69;100370.56;2268987;78;21296;-83
2022/10/07 01:25:51;;;;;;;20.40;9.13;;;;;;;4.28;92.99;100367.49;2269178;78;20959;-83
2022/10/07 01:28:51;;;;;;;20.33;8.83;;;;;;;4.26;92.61;100363.92;2269002;78;20991;-82
2022/10/07 01:31:51;;;;;;;17.87;8.77;;;;;;;4.24;92.50;100362.94;2269168;78;20986;-83
2022/10/07 01:34:53;;;;;;;28.30;9.57;;;;;;;4.21;92.41;100369.20;2268793;78;20983;-83
2022/10/07 01:37:52;;;;;;;22.60;8.60;;;;;;;4.19;92.35;100362.16;2269646;78;21433;-84
2022/10/07 01:40:53;;;;;;;16.30;8.53;;;;;;;4.18;92.53;100357.79;2269218;78;20948;-84
2022/10/07 01:43:53;;;;;;;19.83;8.83;;;;;;;4.16;92.39;100357.70;2268924;78;20974;-85
2022/10/07 01:46:54;;;;;;;46.80;10.23;;;;;;;4.13;92.12;100356.22;2268707;79;20939;-84
2022/10/07 01:49:54;;;;;;;20.67;8.20;;;;;;;4.09;92.38;100354.25;2269319;78;20889;-83
2022/10/07 01:52:54;;;;;;;21.40;8.73;;;;;;;4.05;92.27;100349.69;2269470;78;20940;-80
2022/10/07 01:55:55;;;;;;;26.23;8.90;;;;;;;3.98;91.98;100348.82;2269287;78;20892;-83
2022/10/07 01:58:55;;;;;;;16.57;8.20;;;;;;;3.98;91.98;100348.82;2269276;78;20950;-83
2022/10/07 02:01:56;;;;;;;15.07;8.20;;;;;;;3.97;92.12;100356.97;2268980;78;20943;-83
2022/10/07 02:04:58;;;;;;;17.00;7.57;;;;;;;3.93;91.90;100346.35;2269094;78;20971;-83
2022/10/07 02:07:56;;;;;;;16.87;9.27;;;;;;;3.91;91.84;100353.11;2269347;78;20919;-83
2022/10/07 02:10:57;;;;;;;20.97;7.63;;;;;;;3.88;91.83;100343.48;2268931;78;20979;-84
2022/10/07 02:13:59;;;;;;;13.07;8.03;;;;;;;3.90;91.95;100346.16;2269526;78;20917;-84
2022/10/07 02:16:58;;;;;;;14.20;7.40;;;;;;;3.89;92.03;100336.23;2269403;78;20963;-83
2022/10/07 02:19:58;;;;;;;13.03;7.63;;;;;;;3.86;91.61;100344.19;2269593;78;20946;-81
2022/10/07 02:22:59;;;;;;;31.87;8.53;;;;;;;3.84;91.66;100343.69;2268981;78;20924;-83
2022/10/07 02:25:59;;;;;;;20.13;8.03;;;;;;;3.87;92.20;100347.27;2269123;78;20954;-82
2022/10/07 02:28:59;;;;;;;13.53;7.03;;;;;;;3.84;91.63;100344.98;2269234;78;20976;-83
2022/10/07 02:32:00;;;;;;;15.30;7.27;;;;;;;3.83;91.75;100343.20;2269709;78;20885;-83
2022/10/07 02:35:02;;;;;;;18.70;8.03;;;;;;;3.85;91.53;100340.71;2269038;78;21335;-82
2022/10/07 02:38:00;;;;;;;29.80;8.30;;;;;;;3.86;91.55;100346.77;2269307;78;20979;-82
2022/10/07 02:41:02;;;;;;;12.80;7.97;;;;;;;3.86;91.55;100349.35;2269688;78;21105;-82
2022/10/07 02:44:01;;;;;;;21.67;8.40;;;;;;;3.86;91.66;100342.89;2269410;78;21308;-82
2022/10/07 02:47:02;;;;;;;16.57;7.57;;;;;;;3.84;91.47;100343.69;2269079;78;20950;-82
2022/10/07 02:50:02;;;;;;;19.40;8.57;;;;;;;3.82;91.01;100350.45;2269202;78;20908;-83
2022/10/07 02:53:03;;;;;;;37.93;9.70;;;;;;;3.75;90.97;100347.00;2269527;78;20948;-83
2022/10/07 02:56:04;;;;;;;22.27;7.67;;;;;;;3.74;91.29;100334.88;2269151;78;21314;-82
2022/10/07 02:59:03;;;;;;;21.87;8.67;;;;;;;3.75;91.06;100336.66;2269184;78;20971;-83
2022/10/07 03:02:04;;;;;;;15.40;7.50;;;;;;;3.75;91.13;100327.63;2268996;78;20943;-83
2022/10/07 03:05:04;;;;;;;21.60;8.87;;;;;;;3.72;90.97;100326.14;2269270;78;20991;-83
2022/10/07 03:08:05;;;;;;;13.90;8.00;;;;;;;3.73;91.07;100327.04;2269378;78;20928;-82
2022/10/07 03:11:05;;;;;;;15.83;7.60;;;;;;;3.72;90.81;100318.39;2268925;78;20975;-82
2022/10/07 03:14:05;;;;;;;15.13;8.33;;;;;;;3.68;90.65;100320.69;2269171;78;20888;-82
2022/10/07 03:17:06;;;;;;;28.87;8.97;;;;;;;3.68;90.65;100320.69;2268957;78;20956;-82
2022/10/07 03:20:06;;;;;;;14.17;8.10;;;;;;;3.68;90.51;100315.53;2269024;78;20971;-83
2022/10/07 03:23:08;;;;;;;16.47;9.20;;;;;;;3.63;90.40;100320.41;2269010;78;20928;-83
2022/10/07 03:26:07;;;;;;;21.83;8.47;;;;;;;3.64;90.67;100320.01;2268961;78;20932;-81
2022/10/07 03:29:09;;;;;;;86.20;13.47;;;;;;;3.61;90.43;100321.11;2268926;78;21319;-82
2022/10/07 03:32:08;;;;;;;47.50;9.73;;;;;;;3.64;91.35;100319.61;2268827;78;20959;-82
2022/10/07 03:35:09;;;;;;;26.23;10.40;;;;;;;3.66;90.82;100320.59;2272314;78;21003;-82
2022/10/07 03:38:09;;;;;;;29.43;8.63;;;;;;;3.59;90.45;100318.43;2273632;78;20935;-84
2022/10/07 03:41:09;;;;;;;23.37;8.70;;;;;;;3.55;90.37;100322.91;2273115;78;20967;-83
2022/10/07 03:44:10;;;;;;;79.13;13.23;;;;;;;3.53;90.07;100318.05;2272120;78;21015;-81
2022/10/07 03:47:10;;;;;;;24.37;8.77;;;;;;;3.46;89.88;100315.44;2272912;78;20959;-84
2022/10/07 03:50:10;;;;;;;18.07;8.77;;;;;;;3.47;90.26;100311.20;2272491;78;21366;-83
2022/10/07 03:53:11;;;;;;;33.60;9.10;;;;;;;3.43;89.83;100310.48;2272786;78;20963;-83
2022/10/07 03:56:17;;;;;;;14.87;9.00;;;;;;;3.39;90.04;100315.85;2270848;78;21001;-82
2022/10/07 03:59:18;;;;;;;12.80;8.63;;;;;;;3.37;90.41;100313.57;2270344;78;20987;-83
2022/10/07 04:02:19;;;;;;;13.47;8.57;;;;;;;3.35;90.32;100311.29;2270456;78;20923;-82
2022/10/07 04:05:18;;;;;;;14.93;8.40;;;;;;;3.33;90.34;100311.98;2269806;78;21017;-82
2022/10/07 04:08:19;;;;;;;28.47;9.30;;;;;;;3.32;90.40;100303.75;2270253;78;20990;-82
2022/10/07 04:11:19;;;;;;;55.80;9.93;;;;;;;3.32;90.45;100303.75;2270150;78;20983;-82
2022/10/07 04:14:20;;;;;;;43.90;9.67;;;;;;;3.32;90.58;100303.75;2270701;78;21022;-83
2022/10/07 04:17:22;;;;;;;48.30;9.70;;;;;;;3.31;90.72;100287.38;2271239;78;21291;-82
2022/10/07 04:20:20;;;;;;;35.13;9.67;;;;;;;3.31;90.72;100287.38;2270532;78;21038;-82
2022/10/07 04:23:21;;;;;;;45.50;9.60;;;;;;;3.35;90.93;100293.63;2270546;78;20955;-83
2022/10/07 04:26:21;;;;;;;25.90;9.10;;;;;;;3.33;90.85;100294.81;2270101;78;21408;-83
2022/10/07 04:29:22;;;;;;;23.33;9.63;;;;;;;3.31;90.59;100292.93;2270058;78;21057;-83
2022/10/07 04:32:22;;;;;;;14.27;8.93;;;;;;;3.30;90.41;100284.70;2270143;78;20987;-83
2022/10/07 04:35:23;;;;;;;146.63;16.90;;;;;;;3.34;90.87;100281.11;2267289;78;21007;-84
2022/10/07 04:38:23;;;;;;;62.50;11.27;;;;;;;3.37;90.76;100285.58;2268116;78;21438;-83
2022/10/07 04:41:23;;;;;;;194.03;20.13;;;;;;;3.40;91.29;100282.79;2267725;78;20959;-84
2022/10/07 04:44:24;;;;;;;65.47;11.00;;;;;;;3.38;90.58;100279.22;2266819;78;20947;-83
2022/10/07 04:47:24;;;;;;;38.57;9.57;;;;;;;3.35;90.93;100276.45;2265751;78;20993;-82
2022/10/07 04:50:25;;;;;;;63.63;9.93;;;;;;;3.35;90.92;100279.42;2265423;78;21335;-82
2022/10/07 04:53:25;;;;;;;68.90;10.70;;;;;;;3.35;91.13;100279.03;2265027;78;20955;-82
2022/10/07 04:56:27;;;;;;;89.30;11.20;;;;;;;3.40;91.25;100272.86;2265731;78;20995;-83
2022/10/07 04:59:26;;;;;;;69.77;10.30;;;;;;;3.44;91.49;100269.67;2264801;78;22119;-81
2022/10/07 05:02:26;;;;;;;61.60;11.53;;;;;;;3.49;90.94;100280.81;2265362;78;21011;-81
2022/10/07 05:05:27;;;;;;;130.40;27.60;;;;;;;3.53;91.12;100278.42;2265593;78;20998;-84
2022/10/07 05:08:27;;;;;;;134.50;12.07;;;;;;;3.59;91.54;100274.53;2265456;78;20963;-84
2022/10/07 05:11:27;;;;;;;144.97;11.37;;;;;;;3.67;91.53;100283.65;2265557;78;21019;-81
2022/10/07 05:14:28;;;;;;;108.13;9.93;;;;;;;3.73;91.77;100280.16;2267325;78;20932;-80
2022/10/07 05:17:28;;;;;;;125.97;10.83;;;;;;;3.84;92.00;100280.81;2266882;78;20923;-79
2022/10/07 05:20:29;;;;;;;116.13;11.00;;;;;;;3.95;92.09;100276.30;2265702;78;20963;-80
2022/10/07 05:23:29;;;;;;;91.40;10.33;;;;;;;4.05;91.93;100274.75;2266173;78;20951;-81
2022/10/07 05:26:29;;;;;;;87.57;10.80;;;;;;;4.10;91.55;100271.64;2265224;78;20998;-82
2022/10/07 05:29:30;;;;;;;111.17;11.77;;;;;;;4.20;91.43;100273.09;2265297;78;20963;-82
2022/10/07 05:32:30;;;;;;;72.77;8.97;;;;;;;4.27;91.34;100272.65;2266160;78;20959;-82
2022/10/07 05:35:31;;;;;;;114.80;12.33;;;;;;;4.39;91.36;100268.64;2265837;78;21062;-82
2022/10/07 05:38:32;;;;;;;86.67;11.30;;;;;;;4.50;91.47;100267.57;2266551;78;21682;-81
2022/10/07 05:41:32;;;;;;;48.67;9.13;;;;;;;4.63;91.56;100267.48;2267255;78;20999;-81
2022/10/07 05:44:33;;;;;;;49.67;7.90;;;;;;;4.75;91.16;100266.89;2267958;78;20982;-82
2022/10/07 05:47:33;;;;;;;44.53;9.40;;;;;;;4.84;91.12;100275.58;2266905;78;20959;-82
2022/10/07 05:50:33;;;;;;;29.83;8.03;;;;;;;4.93;91.23;100274.80;2266852;78;20967;-82
2022/10/07 05:53:34;;;;;;;35.10;8.10;;;;;;;5.04;91.16;100275.01;2267120;78;21029;-81
2022/10/07 05:56:35;;;;;;;54.27;7.73;;;;;;;5.15;91.19;100276.91;2265717;78;21058;-83
2022/10/07 05:59:35;;;;;;;28.67;8.73;;;;;;;5.31;91.17;100274.80;2265739;78;21030;-83
2022/10/07 06:02:36;;;;;;;50.83;9.57;;;;;;;5.43;91.30;100275.06;2265397;78;21437;-81
2022/10/07 06:05:35;;;;;;;23.70;8.83;;;;;;;5.58;91.07;100272.42;2265267;78;21074;-84
2022/10/07 06:08:36;;;;;;;19.80;8.90;;;;;;;5.74;91.27;100277.62;2265331;78;20947;-83
2022/10/07 06:14:55;;;;;;;34.87;9.63;;;;;;;6.00;90.84;100279.44;2265323;78;20948;-82
2022/10/07 06:17:55;;;;;;;35.40;10.30;;;;;;;6.16;91.06;100276.87;2266801;78;20980;-83
2022/10/07 06:20:56;;;;;;;46.07;9.13;;;;;;;6.30;91.16;100277.58;2266190;78;21402;-82
2022/10/07 06:23:59;;;;;;;10.47;8.20;;;;;;;6.49;91.32;100275.52;2265864;78;20932;-82
2022/10/07 06:27:00;;;;;;;20.30;8.20;;;;;;;6.69;91.37;100277.41;2267505;78;21438;-81
2022/10/07 06:30:00;;;;;;;17.80;8.17;;;;;;;6.86;91.40;100271.34;2268465;78;21022;-79
2022/10/07 06:33:01;;;;;;;30.87;9.20;;;;;;;7.05;91.51;100274.87;2265250;78;21015;-81
2022/10/07 06:36:01;;;;;;;17.60;8.63;;;;;;;7.23;91.86;100273.16;2266368;78;21046;-81
2022/10/07 06:39:01;;;;;;;11.03;7.80;;;;;;;7.43;92.00;100268.90;2266979;78;21706;-81
2022/10/07 06:42:02;;;;;;;31.80;9.73;;;;;;;7.63;92.17;100268.11;2267437;78;21010;-81
2022/10/07 06:45:02;;;;;;;8.40;7.10;;;;;;;7.80;92.10;100263.31;2266180;78;20983;-80
2022/10/07 06:48:03;;;;;;;11.03;7.47;;;;;;;8.01;92.54;100258.17;2267638;78;21011;-78
2022/10/07 06:51:03;;;;;;;13.00;8.03;;;;;;;8.20;92.21;100251.66;2264217;78;21256;-79
2022/10/07 06:54:03;;;;;;;10.67;7.93;;;;;;;8.43;92.31;100251.80;2266203;78;20978;-81
2022/10/07 06:57:04;;;;;;;12.70;8.80;;;;;;;8.69;92.13;100252.92;2266534;78;20999;-81
2022/10/07 07:00:04;;;;;;;11.93;9.03;;;;;;;8.88;91.99;100248.95;2266852;78;21010;-80
2022/10/07 07:03:05;;;;;;;516.83;44.03;;;;;;;9.05;92.00;100247.91;2266645;78;20978;-80
2022/10/07 07:06:06;;;;;;;14.28;10.53;;;;;;;9.28;91.98;100248.82;2266929;78;21010;-80
2022/10/07 07:09:06;;;;;;;12.90;10.40;;;;;;;9.47;91.96;100246.09;2267188;78;21006;-81
2022/10/07 07:12:06;;;;;;;10.75;9.55;;;;;;;9.64;91.81;100243.27;2266670;78;21104;-81
2022/10/07 07:15:06;;;;;;;11.10;9.57;;;;;;;9.81;91.76;100248.28;2266108;78;20916;-80
2022/10/07 07:18:07;;;;;;;10.20;8.60;;;;;;;10.03;91.89;100240.83;2266811;78;21309;-81
2022/10/07 07:21:07;;;;;;;10.93;8.80;;;;;;;10.23;91.70;100244.60;2267399;78;20915;-80
2022/10/07 07:24:08;;;;;;;12.63;8.70;;;;;;;10.46;91.45;100247.63;2267421;78;20927;-80
2022/10/07 07:27:08;;;;;;;9.50;8.40;;;;;;;10.68;91.17;100237.49;2267374;78;20944;-80
2022/10/07 07:30:08;;;;;;;10.87;8.57;;;;;;;10.89;90.89;100234.70;2267209;78;20975;-82
2022/10/07 07:33:09;;;;;;;102.82;19.70;;;;;;;11.10;90.93;100238.00;2266806;78;20990;-80
2022/10/07 07:36:14;;;;;;;17.42;11.50;;;;;;;11.34;91.00;100225.73;2269986;78;21016;-81
2022/10/07 07:39:10;;;;;;;11.97;8.98;;;;;;;11.48;89.75;100224.42;2269978;78;21021;-79
2022/10/07 07:42:10;;;;;;;11.55;7.90;;;;;;;11.70;89.90;100224.63;2269662;78;21025;-78
2022/10/07 07:45:10;;;;;;;8.85;7.87;;;;;;;11.86;88.59;100222.07;2268764;78;20966;-80
2022/10/07 07:48:12;;;;;;;36.93;9.25;;;;;;;11.99;88.81;100220.69;2269877;78;20947;-81
2022/10/07 07:51:11;;;;;;;10.15;8.15;;;;;;;12.18;88.84;100224.30;2270843;78;20982;-84
2022/10/07 07:54:12;;;;;;;16.40;7.65;;;;;;;12.39;88.34;100215.72;2270921;78;20932;-85
2022/10/07 07:57:12;;;;;;;9.63;8.05;;;;;;;12.60;87.54;100217.11;2271177;78;20979;-85
2022/10/07 08:00:14;;;;;;;11.50;7.85;;;;;;;12.72;86.34;100205.63;2272393;78;21034;-85
2022/10/07 08:03:16;;;;;;;9.78;7.70;;;;;;;12.83;86.35;100212.45;2272138;78;20986;-85
2022/10/07 08:06:16;;;;;;;12.98;8.35;;;;;;;13.03;86.48;100211.22;2270792;78;21022;-85
2022/10/07 08:09:16;;;;;;;11.43;7.78;;;;;;;13.25;86.40;100209.59;2270209;78;20950;-82
2022/10/07 08:12:19;;;;;;;27.82;8.78;;;;;;;13.47;84.65;100206.13;2270580;78;20955;-85
2022/10/07 08:15:17;;;;;;;12.73;7.62;;;;;;;13.63;84.14;100203.88;2270604;78;21752;-84
2022/10/07 08:18:18;;;;;;;16.27;7.58;;;;;;;13.81;82.80;100202.05;2270601;78;21030;-85
2022/10/07 08:21:19;;;;;;;12.75;7.87;;;;;;;13.91;81.33;100206.66;2242788;78;21384;-85
2022/10/07 08:24:20;;;;;;;14.43;7.87;;;;;;;13.99;80.47;100197.63;2269577;78;20970;-84
2022/10/07 08:27:20;;;;;;;21.48;13.60;;;;;;;14.10;80.61;100191.27;2269558;78;20936;-85
2022/10/07 08:30:20;;;;;;;13.90;7.22;;;;;;;14.27;79.99;100186.79;2270186;78;20955;-82
2022/10/07 08:33:21;;;;;;;538.22;50.08;;;;;;;14.42;79.22;100182.27;2270078;78;20955;-78
2022/10/07 08:36:21;;;;;;;80.97;12.82;;;;;;;14.59;78.80;100172.94;2265595;78;21918;-82
2022/10/07 08:39:23;;;;;;;57.20;11.12;;;;;;;14.75;78.42;100174.53;2266157;78;20983;-83
2022/10/07 08:42:22;;;;;;;17.67;7.85;;;;;;;14.90;77.27;100169.52;2266161;78;21010;-82
2022/10/07 08:45:26;;;;;;;11.75;7.62;;;;;;;15.03;76.84;100164.89;2266194;78;20955;-85
2022/10/07 08:48:23;;;;;;;19.45;7.72;;;;;;;15.11;75.81;100165.89;2266260;78;21002;-84
2022/10/07 08:51:23;;;;;;;10.70;6.78;;;;;;;15.23;75.71;100158.17;2266764;78;22037;-84
2022/10/07 08:54:23;;;;;;;8.93;7.42;;;;;;;15.43;75.64;100157.56;2266352;78;20947;-85
2022/10/07 08:57:24;;;;;;;23.50;8.38;;;;;;;15.55;74.42;100162.55;2266079;78;20987;-83
2022/10/07 09:00:24;;;;;;;9.90;7.30;;;;;;;15.56;74.79;100158.17;2265587;78;20995;-81
2022/10/07 09:03:25;;;;;;;11.45;7.25;;;;;;;15.63;73.68;100144.72;2265512;78;21007;-81
2022/10/07 09:06:25;;;;;;;28.10;8.43;;;;;;;15.65;73.74;100146.50;2265318;78;21033;-82
2022/10/07 09:09:26;;;;;;;13.68;7.25;;;;;;;15.76;74.44;100140.05;2265668;78;20928;-82
2022/10/07 09:12:26;;;;;;;10.28;7.15;;;;;;;15.93;73.57;100145.07;2266030;78;20947;-81
2022/10/07 09:15:26;;;;;;;19.27;8.33;;;;;;;16.02;73.15;100146.48;2264632;78;20908;-82
2022/10/07 09:18:27;;;;;;;15.38;7.47;;;;;;;16.12;73.68;100130.34;2264500;78;21433;-81
2022/10/07 09:21:30;;;;;;;12.55;7.65;;;;;;;16.21;72.86;100137.02;2265833;78;21014;-80
2022/10/07 09:24:29;;;;;;;10.88;7.67;;;;;;;16.29;72.91;100130.06;2234311;78;20948;-79
2022/10/07 09:27:32;;;;;;;10.48;7.53;;;;;;;16.33;73.21;100138.45;2264879;78;21042;-76
2022/10/07 09:30:31;;;;;;;19.42;8.03;;;;;;;16.39;72.41;100129.28;2264830;78;20955;-79
2022/10/07 09:33:31;;;;;;;10.43;8.08;;;;;;;16.50;72.50;100117.11;2265649;78;20935;-79
2022/10/07 09:36:31;;;;;;;25.75;8.88;;;;;;;16.54;72.42;100118.02;2263511;78;21043;-80
2022/10/07 09:39:32;;;;;;;54.48;10.15;;;;;;;16.61;71.72;100113.67;2264462;78;21030;-79
2022/10/07 09:42:32;;;;;;;9.13;7.45;;;;;;;16.78;73.40;100110.75;2264726;78;20998;-79
2022/10/07 09:45:33;;;;;;;15.15;7.95;;;;;;;16.93;72.47;100104.27;2265052;78;20990;-80
2022/10/07 09:48:33;;;;;;;11.28;7.22;;;;;;;17.00;72.10;100095.95;2265049;78;20975;-79
2022/10/07 09:51:34;;;;;;;114.08;26.10;;;;;;;17.09;72.14;100096.00;2265087;78;20892;-79
2022/10/07 09:54:34;;;;;;;20.10;7.92;;;;;;;17.13;70.16;100092.50;2261557;78;21002;-80
2022/10/07 09:57:34;;;;;;;13.18;7.42;;;;;;;17.17;71.33;100085.93;2261862;78;21050;-78
2022/10/07 10:00:40;;;;;;;9.55;6.78;;;;;;;17.34;71.12;100086.04;2262209;78;21014;-78
2022/10/07 10:03:41;;;;;;;17.27;7.25;;;;;;;17.41;70.11;100081.23;2263784;78;20990;-80
2022/10/07 10:06:41;;;;;;;8.88;6.35;;;;;;;17.49;69.87;100076.86;2264314;78;21007;-80
2022/10/07 10:09:42;;;;;;;13.05;6.67;;;;;;;17.54;70.16;100071.59;2263638;78;20975;-80
2022/10/07 10:12:42;;;;;;;15.85;7.78;;;;;;;17.64;69.60;100062.83;2263900;78;21022;-77
2022/10/07 10:15:43;;;;;;;12.60;6.97;;;;;;;17.70;68.75;100061.55;2262816;78;20958;-78
2022/10/07 10:18:43;;;;;;;8.68;6.22;;;;;;;17.73;69.22;100057.59;2263102;78;21014;-80
2022/10/07 10:21:43;;;;;;;10.50;7.05;;;;;;;17.80;69.32;100051.45;2262596;78;21022;-78
2022/10/07 10:27:50;;;;;;;16.93;8.30;;;;;;;17.87;68.46;100056.30;2262875;78;21018;-79
2022/10/07 10:30:51;;;;;;;13.98;7.45;;;;;;;17.92;68.81;100048.39;2261729;78;21037;-79
2022/10/07 10:33:51;;;;;;;10.25;6.62;;;;;;;17.99;68.00;100040.91;2262620;78;21018;-78
2022/10/07 10:36:51;;;;;;;8.53;6.30;;;;;;;18.12;68.29;100036.07;2262248;78;21042;-77
2022/10/07 10:39:51;;;;;;;11.57;6.12;;;;;;;18.21;67.03;100036.55;2263953;78;21057;-79
2022/10/07 10:42:52;;;;;;;14.05;6.58;;;;;;;18.19;66.59;100034.31;2264207;78;21034;-80
2022/10/07 10:45:52;;;;;;;33.13;8.10;;;;;;;18.27;67.66;100030.81;2265925;78;21072;-78
2022/10/07 10:48:53;;;;;;;10.38;7.53;;;;;;;18.42;67.08;100029.48;2265518;78;21010;-79
2022/10/07 10:51:54;;;;;;;22.30;8.78;;;;;;;18.39;66.51;100023.31;2262887;78;20978;-79
2022/10/07 10:54:54;;;;;;;8.45;6.58;;;;;;;18.46;66.60;100012.73;2262708;78;20975;-79
2022/10/07 10:57:54;;;;;;;19.10;7.33;;;;;;;18.55;66.57;100009.63;2262745;78;21486;-79
2022/10/07 11:00:54;;;;;;;8.95;6.25;;;;;;;18.64;66.22;100003.92;2263061;78;20979;-79
2022/10/07 11:03:55;;;;;;;10.03;6.83;;;;;;;18.69;66.26;99993.33;2263624;78;21973;-80
2022/10/07 11:06:55;;;;;;;13.83;8.65;;;;;;;18.79;65.77;99985.80;2263523;78;21011;-80
2022/10/07 11:09:56;;;;;;;8.68;7.12;;;;;;;18.82;65.73;99980.50;2264999;78;21006;-79
2022/10/07 11:12:57;;;;;;;391.90;37.13;;;;;;;18.85;65.64;99972.55;2264028;78;20979;-80
2022/10/07 11:16:01;;;;;;;9.48;6.75;;;;;;;18.90;65.05;99965.92;2262971;78;21487;-80
2022/10/07 11:18:59;;;;;;;12.03;6.12;;;;;;;18.99;64.89;99958.83;2230646;78;20963;-79
2022/10/07 11:21:59;;;;;;;6.53;5.65;;;;;;;19.05;64.68;99964.09;2263675;78;21391;-79
2022/10/07 11:25:00;;;;;;;12.70;4.75;;;;;;;19.04;64.61;99949.10;2265290;78;20975;-78
2022/10/07 11:28:00;;;;;;;18.40;5.75;;;;;;;19.09;64.52;99944.70;2264957;78;20955;-80
2022/10/07 11:31:01;;;;;;;19.87;6.72;;;;;;;19.22;65.00;99936.25;2265485;78;21322;-79
2022/10/07 11:34:01;;;;;;;63.30;10.13;;;;;;;19.34;64.15;99926.91;2264510;78;21585;-80
2022/10/07 11:37:02;;;;;;;6.42;5.20;;;;;;;19.45;63.45;99930.80;2269155;78;21039;-79
2022/10/07 11:40:02;;;;;;;8.63;5.80;;;;;;;19.43;62.62;99912.72;2269755;78;21017;-79
2022/10/07 11:43:04;;;;;;;6.95;5.22;;;;;;;19.40;63.43;99911.42;2269310;78;20958;-79
2022/10/07 11:46:02;;;;;;;7.97;5.42;;;;;;;19.45;63.12;99903.00;2268343;78;21453;-80
2022/10/07 11:49:03;;;;;;;6.30;5.53;;;;;;;19.46;63.37;99894.61;2268682;78;21257;-80
2022/10/07 11:52:03;;;;;;;5.70;5.10;;;;;;;19.46;63.15;99896.81;2267930;78;20955;-79
2022/10/07 11:55:04;;;;;;;9.10;6.05;;;;;;;19.52;63.08;99896.80;2266865;78;20959;-79
2022/10/07 11:58:05;;;;;;;10.53;5.95;;;;;;;19.57;63.06;99886.17;2268703;78;21011;-79
2022/10/07 12:01:04;;;;;;;6.87;5.45;;;;;;;19.59;62.82;99883.06;2269440;78;21015;-80
2022/10/07 12:04:05;;;;;;;7.78;5.12;;;;;;;19.64;62.72;99878.61;2270415;78;20998;-79
2022/10/07 12:07:05;;;;;;;12.43;4.97;;;;;;;19.61;62.98;99875.55;2268390;78;21472;-81
2022/10/07 12:10:06;;;;;;;19.12;5.42;;;;;;;19.51;61.89;99869.86;2268609;78;21014;-80
2022/10/07 12:13:06;;;;;;;14.65;6.35;;;;;;;19.45;62.89;99864.61;2268769;78;21006;-79
2022/10/07 12:16:06;;;;;;;8.63;5.50;;;;;;;19.49;63.31;99867.66;2268802;78;21022;-80
2022/10/07 12:19:09;;;;;;;360.90;32.88;;;;;;;19.46;63.65;99861.52;2268834;78;20998;-81
2022/10/07 12:22:08;;;;;;;10.50;7.03;;;;;;;19.48;63.86;99855.77;2268699;78;20976;-79
2022/10/07 12:25:10;;;;;;;8.03;6.33;;;;;;;19.51;64.10;99852.64;2267855;78;21587;-80
2022/10/07 12:28:09;;;;;;;9.95;7.40;;;;;;;19.53;62.92;99853.54;2267192;78;20978;-80
2022/10/07 12:31:08;;;;;;;10.08;5.25;;;;;;;19.50;62.75;99850.01;2267965;78;20923;-80
2022/10/07 12:34:09;;;;;;;13.22;5.80;;;;;;;19.53;61.90;99845.59;2267701;78;20955;-80
2022/10/07 12:37:10;;;;;;;8.23;5.15;;;;;;;19.51;62.23;99842.05;2264615;78;21086;-80
2022/10/07 12:40:10;;;;;;;9.40;5.03;;;;;;;19.50;63.03;99841.63;2264097;78;21011;-81
2022/10/07 12:43:11;;;;;;;5.85;4.40;;;;;;;19.45;63.19;99842.55;2264980;78;20955;-81
2022/10/07 12:46:10;;;;;;;12.65;5.78;;;;;;;19.41;62.70;99831.98;2265593;78;21383;-81
2022/10/07 12:49:12;;;;;;;12.95;6.22;;;;;;;19.42;62.72;99834.19;2264894;78;21338;-80
2022/10/07 12:52:11;;;;;;;8.53;5.65;;;;;;;19.52;62.70;99831.02;2264671;78;20923;-79
2022/10/07 12:55:12;;;;;;;5.45;4.80;;;;;;;19.54;60.88;99826.17;2264454;78;20967;-80
2022/10/07 13:01:31;;;;;;;8.00;4.60;;;;;;;19.49;61.40;99821.33;2265418;78;20959;-82
2022/10/07 13:04:32;;;;;;;5.53;3.70;;;;;;;19.45;61.07;99811.66;2265531;78;20955;-83
2022/10/07 13:07:32;;;;;;;7.22;4.10;;;;;;;19.41;60.25;99808.16;2265584;78;21015;-79
2022/10/07 13:10:32;;;;;;;4.95;3.87;;;;;;;19.39;60.89;99803.77;2264831;78;20916;-83
2022/10/07 13:13:33;;;;;;;9.73;4.22;;;;;;;19.37;60.20;99804.22;2265638;79;20983;-81
2022/10/07 13:16:33;;;;;;;10.78;4.08;;;;;;;19.24;60.44;99797.27;2265698;78;21379;-83
2022/10/07 13:19:34;;;;;;;7.25;3.70;;;;;;;19.25;60.70;99796.38;2265634;78;20956;-82
2022/10/07 13:22:34;;;;;;;4.78;4.12;;;;;;;19.22;60.57;99788.47;2265663;78;20967;-82
2022/10/07 13:25:35;;;;;;;8.28;4.10;;;;;;;19.17;60.99;99790.27;2265538;78;20971;-83
2022/10/07 13:28:35;;;;;;;4.70;4.00;;;;;;;19.19;61.35;99785.84;2265254;78;20991;-82
2022/10/07 13:31:35;;;;;;;9.55;3.98;;;;;;;19.18;61.27;99781.45;2264536;78;20935;-83
2022/10/07 13:34:36;;;;;;;6.55;4.60;;;;;;;19.20;61.72;99775.25;2265129;78;20971;-82
2022/10/07 13:37:36;;;;;;;16.00;5.58;;;;;;;19.23;61.86;99764.63;2265297;78;21461;-84
2022/10/07 13:40:38;;;;;;;7.45;4.90;;;;;;;19.29;61.84;99765.91;2267079;78;21053;-83
2022/10/07 13:43:37;;;;;;;11.18;4.90;;;;;;;19.34;62.23;99754.83;2267575;78;21150;-84
2022/10/07 13:46:37;;;;;;;7.35;5.00;;;;;;;19.35;62.24;99747.77;2267488;78;21405;-83
2022/10/07 13:49:38;;;;;;;8.13;5.30;;;;;;;19.40;62.42;99744.18;2267251;78;21022;-83
2022/10/07 13:52:38;;;;;;;6.50;5.80;;;;;;;19.34;62.48;99734.09;2267968;78;21201;-83
2022/10/07 13:55:39;;;;;;;9.40;5.78;;;;;;;19.29;62.58;99735.47;2266605;78;20963;-82
2022/10/07 13:58:39;;;;;;;37.55;8.30;;;;;;;19.26;62.93;99731.97;2266785;78;21391;-82
2022/10/07 14:01:39;;;;;;;7.47;5.37;;;;;;;19.18;63.16;99734.69;2266731;78;20982;-84
2022/10/07 14:04:40;;;;;;;15.63;12.25;;;;;;;19.08;63.16;99724.63;2267011;78;20946;-83